createdAt,value
2022-11-26T00:02:30.552Z,22.90
2022-11-26T00:05:00.972Z,25.62
2022-11-26T00:07:31.591Z,28.95
2022-11-26T00:10:02.221Z,27.82
2022-11-26T00:12:34.234Z,24.43
2022-11-26T00:15:18.076Z,21.97
2022-11-26T00:17:47.828Z,20.00
2022-11-26T00:20:18.516Z,20.57
2022-11-26T00:22:52.906Z,19.77
2022-11-26T00:25:23.977Z,20.88
2022-11-26T00:27:55.756Z,20.80
2022-11-26T00:30:29.050Z,21.97
2022-11-26T00:32:59.510Z,21.27
2022-11-26T00:35:28.758Z,20.88
2022-11-26T00:37:59.134Z,20.97
2022-11-26T00:40:29.791Z,21.30
2022-11-26T00:43:01.794Z,21.20
2022-11-26T00:45:31.941Z,20.60
2022-11-26T00:48:01.962Z,20.65
2022-11-26T00:50:39.679Z,19.02
2022-11-26T00:53:09.188Z,21.05
2022-11-26T00:55:40.147Z,21.75
2022-11-26T00:58:12.871Z,22.48
2022-11-26T01:00:42.188Z,21.27
2022-11-26T01:03:11.794Z,21.33
2022-11-26T01:05:41.013Z,22.25
2022-11-26T01:08:30.149Z,24.27
2022-11-26T01:11:00.436Z,25.80
2022-11-26T01:13:30.709Z,22.85
2022-11-26T01:16:01.788Z,21.52
2022-11-26T01:18:32.781Z,20.45
2022-11-26T01:21:02.086Z,20.88
2022-11-26T01:23:31.599Z,19.15
2022-11-26T01:26:06.131Z,19.92
2022-11-26T01:28:32.127Z,19.48
2022-11-26T01:31:01.426Z,18.80
2022-11-26T01:33:30.701Z,18.80
2022-11-26T01:35:59.929Z,19.00
2022-11-26T01:38:29.218Z,18.07
2022-11-26T01:41:13.680Z,19.35
2022-11-26T01:43:44.035Z,17.82
2022-11-26T01:46:18.807Z,19.00
2022-11-26T01:48:50.142Z,18.92
2022-11-26T01:51:25.968Z,18.92
2022-11-26T01:54:02.241Z,18.85
2022-11-26T01:56:52.795Z,18.62
2022-11-26T01:59:29.814Z,18.30
2022-11-26T02:02:01.147Z,18.77
2022-11-26T02:04:36.925Z,19.05
2022-11-26T02:07:06.988Z,20.05
2022-11-26T02:09:36.898Z,18.80
2022-11-26T02:12:08.180Z,19.70
2022-11-26T02:14:42.488Z,20.70
2022-11-26T02:17:15.298Z,20.27
2022-11-26T02:19:54.082Z,20.08
2022-11-26T02:22:52.771Z,20.10
2022-11-26T02:25:57.285Z,20.50
2022-11-26T02:28:50.555Z,21.00
2022-11-26T02:31:38.220Z,22.20
2022-11-26T02:34:37.464Z,22.10
2022-11-26T02:37:13.368Z,22.42
2022-11-26T02:39:42.743Z,23.38
2022-11-26T02:42:30.577Z,22.82
2022-11-26T02:45:03.213Z,22.00
2022-11-26T02:47:34.155Z,23.40
2022-11-26T02:50:07.215Z,24.57
2022-11-26T02:52:36.929Z,23.80
2022-11-26T02:55:07.785Z,22.65
2022-11-26T02:57:39.260Z,23.52
2022-11-26T03:00:10.432Z,25.23
2022-11-26T03:03:04.073Z,25.48
2022-11-26T03:05:35.961Z,25.52
2022-11-26T03:08:06.870Z,25.17
2022-11-26T03:10:36.408Z,25.62
2022-11-26T03:13:05.658Z,24.45
2022-11-26T03:15:34.899Z,24.30
2022-11-26T03:18:04.410Z,23.87
2022-11-26T03:20:33.617Z,24.72
2022-11-26T03:23:02.872Z,24.70
2022-11-26T03:25:32.277Z,25.20
2022-11-26T03:28:01.678Z,25.62
2022-11-26T03:30:30.918Z,25.92
2022-11-26T03:33:00.207Z,26.30
2022-11-26T03:35:29.628Z,25.92
2022-11-26T03:37:58.859Z,27.35
2022-11-26T03:40:28.362Z,25.97
2022-11-26T03:42:57.599Z,25.10
2022-11-26T03:45:27.163Z,26.45
2022-11-26T03:47:56.466Z,25.55
2022-11-26T03:50:25.860Z,24.20
2022-11-26T03:52:55.090Z,25.50
2022-11-26T03:55:24.352Z,25.32
2022-11-26T03:57:53.853Z,25.52
2022-11-26T04:00:23.622Z,26.10
2022-11-26T04:02:53.149Z,27.20
2022-11-26T04:05:22.723Z,26.20
2022-11-26T04:07:52.177Z,26.75
2022-11-26T04:10:21.652Z,26.87
2022-11-26T04:12:50.962Z,26.73
2022-11-26T04:15:20.388Z,26.02
2022-11-26T04:17:49.722Z,26.37
2022-11-26T04:20:19.084Z,26.73
2022-11-26T04:22:48.365Z,26.55
2022-11-26T04:25:17.806Z,28.02
2022-11-26T04:27:47.073Z,27.22
2022-11-26T04:30:16.981Z,27.37
2022-11-26T04:32:46.374Z,26.20
2022-11-26T04:35:15.676Z,26.30
2022-11-26T04:37:45.172Z,26.82
2022-11-26T04:40:14.831Z,24.95
2022-11-26T04:42:44.255Z,25.95
2022-11-26T04:45:13.574Z,25.43
2022-11-26T04:47:43.350Z,26.12
2022-11-26T04:50:12.915Z,24.40
2022-11-26T04:52:42.186Z,26.37
2022-11-26T04:55:11.815Z,25.95
2022-11-26T04:57:41.126Z,26.07
2022-11-26T05:00:11.367Z,24.70
2022-11-26T05:02:40.616Z,25.90
2022-11-26T05:05:10.312Z,25.45
2022-11-26T05:07:39.871Z,25.60
2022-11-26T05:10:10.400Z,24.92
2022-11-26T05:12:39.762Z,23.77
2022-11-26T05:15:10.148Z,24.95
2022-11-26T05:17:39.827Z,24.85
2022-11-26T05:20:10.539Z,24.77
2022-11-26T05:22:39.764Z,23.70
2022-11-26T05:25:09.942Z,23.70
2022-11-26T05:27:39.429Z,24.12
2022-11-26T05:30:10.601Z,22.40
2022-11-26T05:32:39.810Z,23.40
2022-11-26T05:35:09.614Z,22.70
2022-11-26T05:37:39.294Z,22.55
2022-11-26T05:40:09.884Z,22.30
2022-11-26T05:42:40.098Z,21.25
2022-11-26T05:45:10.059Z,22.87
2022-11-26T05:47:39.495Z,21.27
2022-11-26T05:50:10.263Z,20.23
2022-11-26T05:52:39.698Z,22.37
2022-11-26T05:55:10.442Z,21.57
2022-11-26T05:57:39.809Z,22.17
2022-11-26T06:00:10.669Z,21.23
2022-11-26T06:02:43.977Z,21.15
2022-11-26T06:05:13.339Z,21.12
2022-11-26T06:07:44.941Z,20.95
2022-11-26T06:10:14.836Z,21.50
2022-11-26T06:12:44.056Z,20.20
2022-11-26T06:15:13.331Z,19.98
2022-11-26T06:17:42.607Z,19.90
2022-11-26T06:20:13.076Z,19.57
2022-11-26T06:22:44.449Z,19.65
2022-11-26T06:25:15.707Z,19.52
2022-11-26T06:27:45.102Z,18.60
2022-11-26T06:30:15.278Z,19.82
2022-11-26T06:32:44.485Z,19.82
2022-11-26T06:35:13.794Z,20.40
2022-11-26T06:37:43.236Z,19.45
2022-11-26T06:40:16.007Z,19.55
2022-11-26T06:42:53.486Z,19.05
2022-11-26T06:45:24.511Z,18.48
2022-11-26T06:47:53.946Z,19.45
2022-11-26T06:50:24.589Z,18.90
2022-11-26T06:52:54.663Z,18.80
2022-11-26T06:55:24.312Z,19.02
2022-11-26T06:57:53.797Z,18.60
2022-11-26T07:00:24.305Z,19.40
2022-11-26T07:02:53.856Z,17.62
2022-11-26T07:05:23.283Z,18.60
2022-11-26T07:07:52.654Z,18.25
2022-11-26T07:10:23.200Z,18.85
2022-11-26T07:12:52.458Z,17.92
2022-11-26T07:15:22.027Z,17.62
2022-11-26T07:17:51.301Z,18.32
2022-11-26T07:20:20.625Z,17.40
2022-11-26T07:22:49.888Z,17.45
2022-11-26T07:25:19.191Z,17.55
2022-11-26T07:27:48.431Z,17.98
2022-11-26T07:30:18.347Z,16.07
2022-11-26T07:32:47.730Z,17.65
2022-11-26T07:35:20.193Z,17.12
2022-11-26T07:37:49.811Z,16.95
2022-11-26T07:40:19.128Z,16.70
2022-11-26T07:42:53.093Z,17.65
2022-11-26T07:45:20.744Z,16.93
2022-11-26T07:47:50.201Z,16.12
2022-11-26T07:50:19.479Z,16.17
2022-11-26T07:52:48.925Z,15.88
2022-11-26T07:55:18.216Z,15.60
2022-11-26T07:57:47.697Z,16.57
2022-11-26T08:00:18.149Z,16.05
2022-11-26T08:02:47.731Z,15.53
2022-11-26T08:05:17.397Z,15.80
2022-11-26T08:07:46.813Z,15.05
2022-11-26T08:10:16.540Z,15.15
2022-11-26T08:12:48.341Z,15.48
2022-11-26T08:15:18.011Z,15.05
2022-11-26T08:17:47.531Z,14.53
2022-11-26T08:20:17.058Z,14.47
2022-11-26T08:22:46.655Z,13.43
2022-11-26T08:25:16.654Z,13.83
2022-11-26T08:27:45.886Z,13.30
2022-11-26T08:30:15.402Z,12.40
2022-11-26T08:32:44.825Z,12.33
2022-11-26T08:35:14.273Z,12.50
2022-11-26T08:37:43.637Z,12.25
2022-11-26T08:40:14.183Z,12.47
2022-11-26T08:42:43.644Z,12.80
2022-11-26T08:45:13.096Z,12.85
2022-11-26T08:47:42.369Z,13.10
2022-11-26T08:50:12.321Z,12.82
2022-11-26T08:52:41.671Z,11.88
2022-11-26T08:55:11.338Z,12.55
2022-11-26T08:57:40.668Z,11.53
2022-11-26T09:00:10.827Z,11.75
2022-11-26T09:02:40.127Z,11.80
2022-11-26T09:05:09.556Z,11.22
2022-11-26T09:07:39.013Z,11.50
2022-11-26T09:10:08.929Z,11.43
2022-11-26T09:12:38.704Z,11.38
2022-11-26T09:15:08.588Z,10.98
2022-11-26T09:17:37.966Z,10.58
2022-11-26T09:20:08.369Z,10.68
2022-11-26T09:22:37.703Z,10.60
2022-11-26T09:25:07.496Z,10.50
2022-11-26T09:27:36.984Z,10.55
2022-11-26T09:30:07.203Z,10.45
2022-11-26T09:32:37.450Z,10.10
2022-11-26T09:35:07.669Z,10.40
2022-11-26T09:37:37.072Z,9.73
2022-11-26T09:40:07.371Z,10.55
2022-11-26T09:42:39.821Z,9.63
2022-11-26T09:45:15.198Z,9.03
2022-11-26T09:47:47.834Z,10.82
2022-11-26T09:52:55.067Z,9.18
2022-11-26T09:55:36.321Z,8.95
2022-11-26T09:58:14.987Z,8.98
2022-11-26T10:00:47.036Z,9.00
2022-11-26T10:03:20.137Z,7.97
2022-11-26T10:06:18.211Z,8.68
2022-11-26T10:09:05.756Z,8.43
2022-11-26T10:11:40.823Z,7.75
2022-11-26T10:14:29.866Z,7.55
2022-11-26T10:17:32.619Z,8.40
2022-11-26T10:20:26.529Z,8.13
2022-11-26T10:22:59.231Z,7.50
2022-11-26T10:27:59.872Z,7.78
2022-11-26T10:30:30.967Z,8.08
2022-11-26T10:33:01.734Z,7.47
2022-11-26T10:35:31.299Z,8.33
2022-11-26T10:38:00.703Z,8.08
2022-11-26T10:40:33.797Z,7.65
2022-11-26T10:43:12.801Z,7.22
2022-11-26T10:45:44.462Z,8.05
2022-11-26T10:48:30.706Z,7.47
2022-11-26T10:51:14.391Z,7.53
2022-11-26T10:53:55.484Z,7.40
2022-11-26T10:56:42.874Z,6.45
2022-11-26T10:59:27.108Z,6.37
2022-11-26T11:01:58.633Z,6.58
2022-11-26T11:04:33.524Z,7.58
2022-11-26T11:07:06.240Z,6.70
2022-11-26T11:09:36.602Z,6.97
2022-11-26T11:12:14.781Z,6.08
2022-11-26T11:14:45.847Z,6.72
2022-11-26T11:17:36.098Z,6.75
2022-11-26T11:20:17.828Z,6.60
2022-11-26T11:22:47.485Z,6.08
2022-11-26T11:25:25.574Z,6.80
2022-11-26T11:27:55.482Z,6.60
2022-11-26T11:30:30.120Z,7.62
2022-11-26T11:33:14.816Z,7.00
2022-11-26T11:35:44.036Z,7.25
2022-11-26T11:38:24.414Z,6.80
2022-11-26T11:40:53.934Z,7.30
2022-11-26T11:43:25.077Z,7.12
2022-11-26T11:46:03.401Z,7.17
2022-11-26T11:48:44.148Z,7.40
2022-11-26T11:51:46.209Z,7.03
2022-11-26T11:54:27.641Z,6.78
2022-11-26T11:57:09.005Z,6.75
2022-11-26T12:00:01.176Z,6.33
2022-11-26T12:02:50.284Z,6.93
2022-11-26T12:05:57.261Z,7.00
2022-11-26T12:08:35.908Z,6.58
2022-11-26T12:11:43.349Z,7.12
2022-11-26T12:14:16.046Z,7.20
2022-11-26T12:19:27.032Z,7.22
2022-11-26T12:21:59.404Z,6.83
2022-11-26T12:24:44.669Z,7.47
2022-11-26T12:27:19.697Z,6.85
2022-11-26T12:29:52.708Z,6.47
2022-11-26T12:32:30.906Z,6.37
2022-11-26T12:35:03.577Z,6.90
2022-11-26T12:40:17.769Z,7.50
2022-11-26T12:42:52.900Z,6.78
2022-11-26T12:45:43.600Z,7.22
2022-11-26T12:48:41.726Z,6.67
2022-11-26T12:51:25.877Z,7.20
2022-11-26T12:54:09.763Z,7.05
2022-11-26T12:56:45.364Z,7.03
2022-11-26T12:59:23.895Z,7.00
2022-11-26T13:01:53.545Z,6.20
2022-11-26T13:04:37.654Z,5.90
2022-11-26T13:11:08.728Z,6.92
2022-11-26T13:13:40.884Z,6.50
2022-11-26T13:16:22.260Z,6.90
2022-11-26T13:18:54.706Z,6.58
2022-11-26T13:21:49.350Z,6.65
2022-11-26T13:24:42.909Z,6.70
2022-11-26T13:27:33.630Z,6.85
2022-11-26T13:30:14.709Z,6.55
2022-11-26T13:33:06.848Z,7.20
2022-11-26T13:35:41.872Z,7.50
2022-11-26T13:38:20.434Z,6.83
2022-11-26T13:41:05.010Z,6.90
2022-11-26T13:44:04.545Z,6.20
2022-11-26T13:46:45.159Z,5.95
2022-11-26T13:49:17.628Z,6.22
2022-11-26T13:51:58.874Z,6.85
2022-11-26T13:54:43.335Z,6.22
2022-11-26T13:57:15.724Z,6.15
2022-11-26T13:59:52.662Z,6.05
2022-11-26T14:02:37.487Z,5.47
2022-11-26T14:05:09.784Z,5.28
2022-11-26T14:07:39.437Z,5.25
2022-11-26T14:10:37.744Z,4.80
2022-11-26T14:13:11.593Z,4.92
2022-11-26T14:15:47.158Z,4.75
2022-11-26T14:18:18.177Z,5.53
2022-11-26T14:21:04.029Z,5.15
2022-11-26T14:23:46.448Z,4.87
2022-11-26T14:26:30.513Z,4.33
2022-11-26T14:29:11.950Z,4.70
2022-11-26T14:31:51.325Z,4.22
2022-11-26T14:34:39.372Z,4.80
2022-11-26T14:37:17.456Z,3.40
2022-11-26T14:39:46.840Z,2.90
2022-11-26T14:42:17.489Z,3.12
2022-11-26T14:44:46.678Z,3.10
2022-11-26T14:47:21.088Z,2.85
2022-11-26T14:49:56.685Z,2.95
2022-11-26T14:52:34.642Z,3.05
2022-11-26T14:55:23.934Z,2.70
2022-11-26T14:58:06.119Z,2.75
2022-11-26T15:00:33.754Z,3.42
2022-11-26T15:03:05.827Z,3.12
2022-11-26T15:05:42.017Z,3.00
2022-11-26T15:08:20.244Z,3.00
2022-11-26T15:10:52.619Z,2.92
2022-11-26T15:13:31.051Z,2.80
2022-11-26T15:16:01.959Z,3.30
2022-11-26T15:18:32.809Z,2.80
2022-11-26T15:21:03.171Z,2.80
2022-11-26T15:23:37.480Z,3.27
2022-11-26T15:26:07.585Z,3.30
2022-11-26T15:28:41.083Z,2.98
2022-11-26T15:31:10.919Z,3.17
2022-11-26T15:33:41.271Z,3.40
2022-11-26T15:36:17.112Z,3.55
2022-11-26T15:39:03.353Z,3.58
2022-11-26T15:41:33.687Z,3.45
2022-11-26T15:44:04.145Z,3.65
2022-11-26T15:46:35.816Z,3.60
2022-11-26T15:49:08.323Z,4.00
2022-11-26T15:51:41.320Z,4.15
2022-11-26T15:54:38.380Z,4.20
2022-11-26T15:57:06.545Z,3.92
2022-11-26T15:59:35.716Z,4.00
2022-11-26T16:02:17.112Z,4.55
2022-11-26T16:04:51.446Z,3.77
2022-11-26T16:07:23.997Z,4.45
2022-11-26T16:09:55.777Z,4.45
2022-11-26T16:12:30.736Z,4.43
2022-11-26T16:15:15.968Z,4.20
2022-11-26T16:17:43.492Z,4.85
2022-11-26T16:20:24.325Z,5.15
2022-11-26T16:23:01.152Z,5.10
2022-11-26T16:25:33.433Z,4.83
2022-11-26T16:28:12.055Z,4.72
2022-11-26T16:30:44.548Z,4.83
2022-11-26T16:33:14.155Z,4.83
2022-11-26T16:35:45.657Z,4.90
2022-11-26T16:38:22.651Z,4.78
2022-11-26T16:40:52.467Z,4.78
2022-11-26T16:43:21.808Z,4.60
2022-11-26T16:45:53.992Z,5.10
2022-11-26T16:48:26.877Z,5.12
2022-11-26T16:50:57.457Z,5.58
2022-11-26T16:53:26.979Z,5.42
2022-11-26T16:55:56.567Z,5.25
2022-11-26T16:58:37.620Z,5.00
2022-11-26T17:01:07.134Z,5.37
2022-11-26T17:03:36.579Z,5.05
2022-11-26T17:06:15.024Z,5.95
2022-11-26T17:08:49.478Z,7.75
2022-11-26T17:11:15.321Z,8.90
2022-11-26T17:13:44.561Z,19.67
2022-11-26T17:16:19.144Z,7.92
2022-11-26T17:18:49.331Z,7.75
2022-11-26T17:21:18.704Z,8.70
2022-11-26T17:23:48.031Z,8.73
2022-11-26T17:26:24.353Z,8.43
2022-11-26T17:28:53.745Z,8.45
2022-11-26T17:31:23.163Z,9.28
2022-11-26T17:33:53.471Z,8.60
2022-11-26T17:36:24.000Z,9.60
2022-11-26T17:38:53.708Z,8.90
2022-11-26T17:41:23.067Z,8.93
2022-11-26T17:43:52.545Z,9.28
2022-11-26T17:46:23.064Z,9.38
2022-11-26T17:48:57.021Z,8.98
2022-11-26T17:51:23.657Z,8.80
2022-11-26T17:53:53.294Z,9.28
2022-11-26T17:56:24.580Z,9.38
2022-11-26T17:58:54.327Z,9.18
2022-11-26T18:01:23.980Z,10.08
2022-11-26T18:03:53.575Z,10.05
2022-11-26T18:06:37.419Z,10.35
2022-11-26T18:09:06.769Z,10.50
2022-11-26T18:11:48.003Z,11.03
2022-11-26T18:14:18.222Z,10.85
2022-11-26T18:16:47.783Z,11.75
2022-11-26T18:19:18.770Z,11.25
2022-11-26T18:21:49.421Z,11.40
2022-11-26T18:24:18.890Z,12.18
2022-11-26T18:26:48.140Z,10.88
2022-11-26T18:29:17.588Z,10.80
2022-11-26T18:31:46.923Z,10.85
2022-11-26T18:34:16.172Z,11.05
2022-11-26T18:36:49.361Z,11.15
2022-11-26T18:39:16.846Z,11.38
2022-11-26T18:41:46.096Z,9.80
2022-11-26T18:44:15.712Z,10.28
2022-11-26T18:46:44.935Z,11.08
2022-11-26T18:49:14.360Z,13.35
2022-11-26T18:51:43.669Z,11.63
2022-11-26T18:54:15.881Z,11.50
2022-11-26T18:56:45.552Z,10.55
2022-11-26T18:59:15.566Z,10.63
2022-11-26T19:01:45.572Z,11.70
2022-11-26T19:04:17.569Z,10.53
2022-11-26T19:06:46.799Z,10.48
2022-11-26T19:09:18.497Z,10.23
2022-11-26T19:11:49.075Z,10.93
2022-11-26T19:14:18.591Z,11.55
2022-11-26T19:16:50.566Z,11.75
2022-11-26T19:19:20.493Z,11.83
2022-11-26T19:21:50.434Z,10.63
2022-11-26T19:24:19.863Z,11.25
2022-11-26T19:26:49.122Z,11.53
2022-11-26T19:29:18.683Z,10.88
2022-11-26T19:31:48.077Z,10.60
2022-11-26T19:34:17.869Z,11.05
2022-11-26T19:36:49.170Z,10.85
2022-11-26T19:39:19.682Z,11.35
2022-11-26T19:41:49.170Z,11.15
2022-11-26T19:44:18.515Z,9.83
2022-11-26T19:46:48.346Z,10.58
2022-11-26T19:49:17.728Z,10.15
2022-11-26T19:51:46.991Z,9.93
2022-11-26T19:54:16.187Z,10.15
2022-11-26T19:56:46.844Z,10.68
2022-11-26T19:59:19.151Z,10.05
2022-11-26T20:01:48.879Z,10.65
2022-11-26T20:04:19.775Z,10.20
2022-11-26T20:06:49.219Z,10.03
2022-11-26T20:09:18.689Z,10.30
2022-11-26T20:11:48.082Z,9.65
2022-11-26T20:14:17.438Z,10.20
2022-11-26T20:16:47.036Z,10.05
2022-11-26T20:19:18.144Z,10.18
2022-11-26T20:21:49.235Z,10.03
2022-11-26T20:24:19.262Z,9.75
2022-11-26T20:26:50.388Z,10.93
2022-11-26T20:29:20.283Z,10.95
2022-11-26T20:31:52.139Z,10.78
2022-11-26T20:34:24.113Z,10.70
2022-11-26T20:36:53.640Z,11.05
2022-11-26T20:39:24.956Z,11.00
2022-11-26T20:41:54.419Z,10.13
2022-11-26T20:44:24.859Z,9.40
2022-11-26T20:46:55.768Z,10.20
2022-11-26T20:49:28.432Z,10.00
2022-11-26T20:51:56.387Z,10.40
2022-11-26T20:54:26.879Z,10.40
2022-11-26T20:56:56.170Z,11.18
2022-11-26T20:59:25.844Z,10.75
2022-11-26T21:01:55.547Z,10.15
2022-11-26T21:04:25.075Z,10.58
2022-11-26T21:06:54.432Z,10.53
2022-11-26T21:09:24.090Z,10.45
2022-11-26T21:11:53.462Z,10.38
2022-11-26T21:14:22.972Z,10.90
2022-11-26T21:16:52.805Z,10.65
2022-11-26T21:19:22.214Z,10.05
2022-11-26T21:21:51.585Z,10.38
2022-11-26T21:24:21.107Z,11.57
2022-11-26T21:26:50.423Z,10.98
2022-11-26T21:29:20.235Z,11.33
2022-11-26T21:31:49.842Z,10.68
2022-11-26T21:34:19.295Z,10.38
2022-11-26T21:36:48.657Z,10.53
2022-11-26T21:39:18.310Z,11.53
2022-11-26T21:41:47.693Z,11.22
2022-11-26T21:44:17.153Z,10.28
2022-11-26T21:46:46.754Z,9.78
2022-11-26T21:49:16.316Z,9.90
2022-11-26T21:51:46.088Z,10.23
2022-11-26T21:54:16.614Z,10.43
2022-11-26T21:56:45.835Z,9.05
2022-11-26T21:59:15.361Z,9.45
2022-11-26T22:01:45.564Z,10.68
2022-11-26T22:04:19.630Z,10.03
2022-11-26T22:06:49.493Z,10.32
2022-11-26T22:09:19.194Z,9.68
2022-11-26T22:11:48.445Z,9.78
2022-11-26T22:14:18.174Z,9.05
2022-11-26T22:16:49.406Z,9.33
2022-11-26T22:19:18.731Z,8.98
2022-11-26T22:21:48.534Z,9.03
2022-11-26T22:24:20.381Z,9.53
2022-11-26T22:26:49.799Z,9.43
2022-11-26T22:29:20.077Z,8.13
2022-11-26T22:31:50.562Z,8.40
2022-11-26T22:34:25.975Z,8.23
2022-11-26T22:36:55.367Z,8.13
2022-11-26T22:39:24.723Z,7.90
2022-11-26T22:41:54.346Z,7.95
2022-11-26T22:44:23.942Z,7.65
2022-11-26T22:46:53.320Z,7.85
2022-11-26T22:49:22.834Z,7.83
2022-11-26T22:51:52.069Z,8.10
2022-11-26T22:54:21.701Z,7.28
2022-11-26T22:56:51.038Z,7.03
2022-11-26T22:59:20.447Z,8.00
2022-11-26T23:01:49.757Z,7.70
2022-11-26T23:04:19.134Z,7.55
2022-11-26T23:06:48.495Z,7.95
2022-11-26T23:09:18.218Z,7.40
2022-11-26T23:11:47.727Z,6.62
2022-11-26T23:14:17.054Z,7.10
2022-11-26T23:16:46.434Z,6.92
2022-11-26T23:19:16.977Z,7.62
2022-11-26T23:21:47.132Z,7.42
2022-11-26T23:24:17.328Z,7.00
2022-11-26T23:26:46.891Z,7.10
2022-11-26T23:29:16.333Z,7.17
2022-11-26T23:31:45.982Z,7.58
2022-11-26T23:34:16.073Z,7.25
2022-11-26T23:36:45.318Z,7.15
2022-11-26T23:39:14.985Z,7.22
2022-11-26T23:41:44.677Z,7.58
2022-11-26T23:44:13.910Z,7.25
2022-11-26T23:46:43.261Z,7.17
2022-11-26T23:49:12.614Z,7.22
2022-11-26T23:51:41.872Z,6.85
2022-11-26T23:54:11.089Z,6.40
2022-11-26T23:56:42.255Z,7.20
2022-11-26T23:59:12.525Z,7.33
